Victory, Vermont
Current Conditions -  °F | °C
As of 4:35 AM on Friday 24 Oct 2014 (Local Time) from KCDA Reporting Station
Overcast Overcast  
Wind Chill: 42°   Ceiling: 1600
Heat Index: 42°   Visibility: 10mi
Dew Point: 40°   Wind: 0mph
Humidity: 91%   Direction: NA
Pressure: 29.77"   Gusts: NA
Location:  44.5627°N, 71.7775°W
Report Text: KCDA 240835Z AUTO 00000KT 10SM OVC016 06/04 A2977 RMK AO2 T00560042
Loading
Personal Weather Stations






























Interactive Weather Map New forecast layout! Learn more

10-Day Weather Forecast

Advertisements
Track Severe Weather on mobile